createdAt,value
2023-04-12T00:00:27.828Z,499.9231
2023-04-12T00:01:29.391Z,498.9167
2023-04-12T00:02:31.775Z,499.3077
2023-04-12T00:03:34.335Z,502.2500
2023-04-12T00:04:36.534Z,501.8333
2023-04-12T00:05:38.727Z,499.8333
2023-04-12T00:06:41.108Z,496.3846
2023-04-12T00:07:43.393Z,495.5385
2023-04-12T00:08:45.719Z,496.6154
2023-04-12T00:09:48.044Z,497.6154
2023-04-12T00:10:50.411Z,498.4615
2023-04-12T00:11:52.741Z,496.7692
2023-04-12T00:12:55.064Z,497.2308
2023-04-12T00:13:57.649Z,497.6154
2023-04-12T00:14:59.720Z,497.6667
2023-04-12T00:16:02.099Z,498.4615
2023-04-12T00:17:04.394Z,498.0000
2023-04-12T00:18:06.719Z,495.7692
2023-04-12T00:19:09.071Z,497.2308
2023-04-12T00:20:11.402Z,499.4615
2023-04-12T00:21:13.734Z,498.7692
2023-04-12T00:22:16.075Z,499.3846
2023-04-12T00:23:18.367Z,501.7692
2023-04-12T00:24:20.750Z,502.0769
2023-04-12T00:25:23.088Z,504.0769
2023-04-12T00:26:25.465Z,504.1538
2023-04-12T00:27:27.728Z,502.6923
2023-04-12T00:28:30.059Z,504.8462
2023-04-12T00:29:32.386Z,509.0000
2023-04-12T00:30:34.701Z,507.2308
2023-04-12T00:31:37.101Z,508.7692
2023-04-12T00:32:39.397Z,509.1667
2023-04-12T00:33:41.751Z,507.7500
2023-04-12T00:34:44.039Z,504.9231
2023-04-12T00:35:46.452Z,502.8462
2023-04-12T00:36:49.321Z,501.9231
2023-04-12T00:37:51.047Z,508.8333
2023-04-12T00:38:53.375Z,512.2308
2023-04-12T00:39:55.692Z,513.3077
2023-04-12T00:40:58.115Z,514.3077
2023-04-12T00:42:00.344Z,513.5385
2023-04-12T00:43:02.736Z,511.0769
2023-04-12T00:44:05.030Z,508.3846
2023-04-12T00:45:07.365Z,502.3846
2023-04-12T00:46:09.700Z,506.2308
2023-04-12T00:47:12.031Z,505.5385
2023-04-12T00:48:14.392Z,508.0769
2023-04-12T00:49:16.672Z,508.4615
2023-04-12T00:50:19.029Z,508.4615
2023-04-12T00:51:21.341Z,508.1538
2023-04-12T00:52:23.678Z,509.3846
2023-04-12T00:53:26.070Z,510.0000
2023-04-12T00:54:28.373Z,507.3846
2023-04-12T00:55:30.723Z,507.8462
2023-04-12T00:56:33.002Z,506.8462
2023-04-12T00:57:35.371Z,510.0769
2023-04-12T00:58:37.711Z,510.6923
2023-04-12T00:59:40.015Z,513.8461
2023-04-12T01:00:42.355Z,513.3846
2023-04-12T01:01:44.699Z,511.1538
2023-04-12T01:02:47.299Z,509.6154
2023-04-12T01:03:49.540Z,508.0833
2023-04-12T01:04:51.678Z,511.7500
2023-04-12T01:05:53.988Z,514.0769
2023-04-12T01:06:56.314Z,516.3846
2023-04-12T01:07:58.639Z,516.4615
2023-04-12T01:09:00.969Z,516.8461
2023-04-12T01:10:03.327Z,517.1539
2023-04-12T01:11:05.657Z,516.3846
2023-04-12T01:12:08.025Z,518.5385
2023-04-12T01:13:10.296Z,516.2308
2023-04-12T01:14:12.629Z,515.0000
2023-04-12T01:15:14.966Z,512.0000
2023-04-12T01:16:17.338Z,511.4615
2023-04-12T01:17:19.624Z,511.5385
2023-04-12T01:18:21.921Z,511.0000
2023-04-12T01:19:24.266Z,510.8462
2023-04-12T01:20:26.610Z,508.1538
2023-04-12T01:21:28.914Z,512.4615
2023-04-12T01:22:31.254Z,518.0000
2023-04-12T01:23:33.615Z,516.4615
2023-04-12T01:24:35.939Z,516.5385
2023-04-12T01:25:38.261Z,515.3846
2023-04-12T01:26:40.613Z,513.1539
2023-04-12T01:27:42.915Z,512.3077
2023-04-12T01:28:45.267Z,510.6154
2023-04-12T01:29:47.567Z,513.3077
2023-04-12T01:30:49.924Z,514.1539
2023-04-12T01:31:52.284Z,515.3846
2023-04-12T01:32:54.600Z,514.0769
2023-04-12T01:33:57.160Z,519.1539
2023-04-12T01:34:59.260Z,518.8333
2023-04-12T01:36:01.637Z,515.9231
2023-04-12T01:37:03.910Z,514.5000
2023-04-12T01:38:06.228Z,510.6923
2023-04-12T01:39:08.635Z,508.3077
2023-04-12T01:40:10.971Z,508.3846
2023-04-12T01:41:13.283Z,507.3846
2023-04-12T01:42:15.615Z,507.7692
2023-04-12T01:43:17.924Z,507.4615
2023-04-12T01:44:20.274Z,506.4615
2023-04-12T01:45:22.625Z,507.6154
2023-04-12T01:46:24.932Z,508.3846
2023-04-12T01:47:27.396Z,506.8462
2023-04-12T01:48:29.561Z,504.3333
2023-04-12T01:49:31.953Z,501.6923
2023-04-12T01:50:34.293Z,498.7692
2023-04-12T01:51:36.577Z,496.8462
2023-04-12T01:52:38.987Z,495.5385
2023-04-12T01:53:41.243Z,493.1538
2023-04-12T01:54:43.623Z,494.3077
2023-04-12T01:55:45.941Z,494.4615
2023-04-12T01:56:48.296Z,494.3077
2023-04-12T01:57:50.600Z,493.6923
2023-04-12T01:58:52.907Z,492.6154
2023-04-12T01:59:55.247Z,489.8462
2023-04-12T02:00:57.569Z,489.8462
2023-04-12T02:01:59.942Z,491.1538
2023-04-12T02:03:02.497Z,493.4615
2023-04-12T02:04:04.770Z,494.9167
2023-04-12T02:05:06.913Z,495.4167
2023-04-12T02:06:09.247Z,497.6923
2023-04-12T02:07:11.615Z,500.3077
2023-04-12T02:08:13.900Z,501.2308
2023-04-12T02:09:16.220Z,500.6923
2023-04-12T02:10:18.579Z,499.6923
2023-04-12T02:11:20.875Z,497.2308
2023-04-12T02:12:23.204Z,496.1538
2023-04-12T02:13:25.551Z,494.0769
2023-04-12T02:14:27.916Z,491.7692
2023-04-12T02:15:30.252Z,493.6923
2023-04-12T02:16:32.714Z,494.6154
2023-04-12T02:17:34.861Z,494.6667
2023-04-12T02:18:37.193Z,493.4615
2023-04-12T02:19:39.536Z,494.9231
2023-04-12T02:20:41.846Z,495.7692
2023-04-12T02:21:44.217Z,496.2308
2023-04-12T02:22:46.531Z,496.7692
2023-04-12T02:23:48.857Z,494.4615
2023-04-12T02:24:51.188Z,495.0769
2023-04-12T02:25:53.533Z,496.6923
2023-04-12T02:26:55.891Z,498.4615
2023-04-12T02:27:58.178Z,499.3077
2023-04-12T02:29:00.520Z,500.8462
2023-04-12T02:30:02.829Z,503.7692
2023-04-12T02:31:05.180Z,503.6154
2023-04-12T02:32:07.508Z,499.4615
2023-04-12T02:33:09.906Z,494.5385
2023-04-12T02:34:12.228Z,493.0000
2023-04-12T02:35:14.474Z,490.8333
2023-04-12T02:36:16.816Z,489.9231
2023-04-12T02:37:19.146Z,490.6154
2023-04-12T02:38:21.472Z,493.2308
2023-04-12T02:39:23.818Z,492.3077
2023-04-12T02:40:26.136Z,493.6154
2023-04-12T02:41:28.445Z,492.6154
2023-04-12T02:42:30.820Z,490.6923
2023-04-12T02:43:33.175Z,490.2308
2023-04-12T02:44:35.452Z,491.5385
2023-04-12T02:45:37.798Z,491.4615
2023-04-12T02:46:40.136Z,489.9231
2023-04-12T02:47:42.454Z,490.0769
2023-04-12T02:48:44.792Z,491.8333
2023-04-12T02:49:47.070Z,492.1538
2023-04-12T02:50:49.397Z,492.2500
2023-04-12T02:51:51.758Z,493.2308
2023-04-12T02:52:54.066Z,492.1538
2023-04-12T02:53:56.601Z,490.3077
2023-04-12T02:54:58.691Z,492.5833
2023-04-12T02:56:01.046Z,491.1538
2023-04-12T02:57:03.349Z,489.0000
2023-04-12T02:58:05.691Z,488.8462
2023-04-12T02:59:08.052Z,490.8462
2023-04-12T03:00:10.341Z,490.0000
2023-04-12T03:01:12.684Z,491.8462
2023-04-12T03:02:15.084Z,492.9231
2023-04-12T03:03:17.540Z,491.1538
2023-04-12T03:04:19.823Z,490.6667
2023-04-12T03:05:21.985Z,487.9167
2023-04-12T03:06:24.311Z,487.4615
2023-04-12T03:07:26.695Z,486.9231
2023-04-12T03:08:28.975Z,487.6154
2023-04-12T03:09:31.311Z,489.6154
2023-04-12T03:10:33.648Z,489.3077
2023-04-12T03:11:35.973Z,489.6154
2023-04-12T03:12:38.297Z,492.6154
2023-04-12T03:13:40.656Z,492.4615
2023-04-12T03:14:42.989Z,493.7692
2023-04-12T03:15:45.388Z,495.8462
2023-04-12T03:16:47.617Z,495.1667
2023-04-12T03:17:50.014Z,493.3846
2023-04-12T03:18:52.272Z,499.1667
2023-04-12T03:19:54.590Z,503.6154
2023-04-12T03:20:56.954Z,503.6154
2023-04-12T03:21:59.276Z,503.6923
2023-04-12T03:23:01.756Z,500.4615
2023-04-12T03:24:03.941Z,498.1667
2023-04-12T03:25:06.260Z,496.7692
2023-04-12T03:26:08.575Z,494.3846
2023-04-12T03:27:10.921Z,494.2308
2023-04-12T03:28:13.300Z,494.7692
2023-04-12T03:29:15.564Z,495.1538
2023-04-12T03:30:17.901Z,497.0769
2023-04-12T03:31:20.257Z,495.8462
2023-04-12T03:32:22.566Z,495.1538
2023-04-12T03:33:24.881Z,492.7692
2023-04-12T03:34:27.200Z,492.0000
2023-04-12T03:35:29.539Z,494.3077
2023-04-12T03:36:31.858Z,497.3077
2023-04-12T03:37:34.227Z,496.4615
2023-04-12T03:38:36.516Z,496.3333
2023-04-12T03:39:38.829Z,496.0000
2023-04-12T03:40:41.133Z,496.5385
2023-04-12T03:41:43.473Z,498.3846
2023-04-12T03:42:45.879Z,500.0769
2023-04-12T03:43:48.122Z,501.5385
2023-04-12T03:44:50.468Z,502.0769
2023-04-12T03:45:52.806Z,501.0000
2023-04-12T03:46:55.202Z,499.9231
2023-04-12T03:47:57.536Z,499.5385
2023-04-12T03:48:59.762Z,500.8462
2023-04-12T03:51:04.420Z,502.9167
2023-04-12T03:52:06.756Z,505.4615
2023-04-12T03:53:09.091Z,506.5385
2023-04-12T03:54:11.413Z,507.9231
2023-04-12T03:55:13.767Z,507.4615
2023-04-12T03:56:16.087Z,505.8462
2023-04-12T03:57:18.418Z,503.0769
2023-04-12T03:58:20.703Z,502.0769
2023-04-12T03:59:23.033Z,500.5385
2023-04-12T04:00:25.405Z,500.2308
2023-04-12T04:01:28.312Z,504.9231
2023-04-12T04:02:30.209Z,503.9167
2023-04-12T04:03:32.401Z,504.0000
2023-04-12T04:04:34.751Z,503.6923
2023-04-12T04:05:37.009Z,499.2500
2023-04-12T04:06:39.336Z,499.4615
2023-04-12T04:07:43.560Z,500.5385
2023-04-12T04:08:46.805Z,501.5833
2023-04-12T04:09:46.314Z,501.2500
2023-04-12T04:10:48.656Z,504.3077
2023-04-12T04:11:52.553Z,503.5385
2023-04-12T04:12:53.334Z,504.9167
2023-04-12T04:13:55.995Z,506.5385
2023-04-12T04:14:57.952Z,507.4167
2023-04-12T04:16:00.384Z,506.0000
2023-04-12T04:17:02.657Z,505.2500
2023-04-12T04:18:05.117Z,503.3846
2023-04-12T04:19:07.289Z,504.6154
2023-04-12T04:20:09.630Z,505.0000
2023-04-12T04:21:11.949Z,502.6923
2023-04-12T04:22:14.304Z,501.1538
2023-04-12T04:23:16.592Z,501.3077
2023-04-12T04:24:18.926Z,503.0769
2023-04-12T04:25:21.412Z,501.6923
2023-04-12T04:26:23.585Z,502.6923
2023-04-12T04:27:25.892Z,504.5385
2023-04-12T04:28:28.209Z,506.6923
2023-04-12T04:29:30.549Z,508.3077
2023-04-12T04:30:32.866Z,507.7692
2023-04-12T04:31:35.237Z,510.3846
2023-04-12T04:32:37.539Z,510.7692
2023-04-12T04:33:39.844Z,507.5385
2023-04-12T04:34:42.480Z,507.8462
2023-04-12T04:35:44.606Z,506.9167
2023-04-12T04:36:46.908Z,508.5833
2023-04-12T04:37:49.196Z,510.0000
2023-04-12T04:38:51.529Z,506.6923
2023-04-12T04:39:53.850Z,507.6154
2023-04-12T04:40:56.188Z,510.6154
2023-04-12T04:41:58.487Z,513.0000
2023-04-12T04:43:00.818Z,513.3077
2023-04-12T04:44:03.161Z,513.4615
2023-04-12T04:45:05.494Z,514.3077
2023-04-12T04:46:07.826Z,515.0000
2023-04-12T04:47:10.128Z,515.3333
2023-04-12T04:48:12.453Z,517.7692
2023-04-12T04:49:14.758Z,517.8461
2023-04-12T04:50:17.127Z,517.5385
2023-04-12T04:51:19.425Z,516.7692
2023-04-12T04:52:21.772Z,518.1539
2023-04-12T04:53:24.094Z,522.3846
2023-04-12T04:54:26.413Z,525.9231
2023-04-12T04:55:28.818Z,526.6154
2023-04-12T04:56:31.175Z,525.0000
2023-04-12T04:57:33.444Z,523.5000
2023-04-12T04:58:35.757Z,523.6923
2023-04-12T04:59:38.088Z,522.7692
2023-04-12T05:00:40.422Z,518.9231
2023-04-12T05:01:42.780Z,516.3077
2023-04-12T05:02:45.152Z,517.5000
2023-04-12T05:03:47.469Z,519.8461
2023-04-12T05:04:49.779Z,522.0000
2023-04-12T05:05:52.073Z,524.0000
2023-04-12T05:06:54.384Z,523.0769
2023-04-12T05:07:56.745Z,522.9231
2023-04-12T05:08:59.329Z,524.6154
2023-04-12T05:10:01.379Z,526.0000
2023-04-12T05:11:03.692Z,524.8461
2023-04-12T05:12:06.017Z,524.1539
2023-04-12T05:13:09.219Z,521.0769
2023-04-12T05:14:12.525Z,519.4167
2023-04-12T05:15:13.024Z,517.8333
2023-04-12T05:16:15.402Z,516.0833
2023-04-12T05:17:17.692Z,516.2308
2023-04-12T05:18:20.038Z,515.4615
2023-04-12T05:19:22.364Z,513.0000
2023-04-12T05:20:24.689Z,513.6154
2023-04-12T05:21:26.987Z,513.3077
2023-04-12T05:22:29.329Z,520.5385
2023-04-12T05:23:31.681Z,525.6923
2023-04-12T05:24:34.008Z,526.4615
2023-04-12T05:25:36.327Z,526.0000
2023-04-12T05:26:38.626Z,525.5385
2023-04-12T05:27:40.968Z,526.5385
2023-04-12T05:28:43.349Z,526.8461
2023-04-12T05:29:45.872Z,525.3846
2023-04-12T05:30:48.043Z,524.6154
2023-04-12T05:31:50.302Z,526.0000
2023-04-12T05:32:52.717Z,526.8461
2023-04-12T05:33:55.085Z,527.5385
2023-04-12T05:34:57.305Z,530.2308
2023-04-12T05:35:59.664Z,526.8461
2023-04-12T05:37:01.949Z,522.7692
2023-04-12T05:38:04.277Z,517.1539
2023-04-12T05:39:06.605Z,515.6923
2023-04-12T05:40:08.959Z,515.6923
2023-04-12T05:41:11.271Z,514.5385
2023-04-12T05:42:13.606Z,516.3077
2023-04-12T05:43:15.953Z,519.8461
2023-04-12T05:44:18.363Z,522.6923
2023-04-12T05:45:20.671Z,524.4615
2023-04-12T05:46:23.066Z,523.8461
2023-04-12T05:47:25.352Z,520.9231
2023-04-12T05:48:27.646Z,521.0769
2023-04-12T05:49:30.033Z,520.2308
2023-04-12T05:50:32.340Z,520.6154
2023-04-12T05:51:41.418Z,520.6154
2023-04-12T05:52:36.954Z,516.2727
2023-04-12T05:53:39.318Z,513.3077
2023-04-12T05:54:41.642Z,514.0769
2023-04-12T05:55:43.961Z,515.7692
2023-04-12T05:56:46.281Z,513.2308
2023-04-12T05:57:48.604Z,510.7692
2023-04-12T05:58:50.934Z,509.8462
2023-04-12T05:59:53.253Z,507.0769
2023-04-12T06:00:55.601Z,506.0000
2023-04-12T06:01:57.962Z,509.0769
2023-04-12T06:03:00.313Z,511.4615
2023-04-12T06:04:02.832Z,515.8333
2023-04-12T06:05:05.137Z,514.8333
2023-04-12T06:06:07.244Z,512.7500
2023-04-12T06:07:09.575Z,513.3077
2023-04-12T06:08:11.926Z,513.0000
2023-04-12T06:09:14.249Z,511.2308
2023-04-12T06:10:16.583Z,511.2308
2023-04-12T06:11:18.912Z,511.7692
2023-04-12T06:12:21.238Z,512.3846
2023-04-12T06:13:23.581Z,513.6154
2023-04-12T06:14:25.929Z,515.4615
2023-04-12T06:15:28.238Z,514.6923
2023-04-12T06:16:30.597Z,513.5385
2023-04-12T06:17:32.926Z,514.2308
2023-04-12T06:18:35.228Z,516.2308
2023-04-12T06:19:37.557Z,517.4615
2023-04-12T06:20:39.962Z,516.8461
2023-04-12T06:21:42.208Z,516.5385
2023-04-12T06:22:44.547Z,517.6923
2023-04-12T06:23:46.948Z,518.8461
2023-04-12T06:24:49.213Z,520.3077
2023-04-12T06:25:51.544Z,519.2308
2023-04-12T06:26:53.879Z,516.1539
2023-04-12T06:27:56.205Z,514.5385
2023-04-12T06:28:58.770Z,514.4615
2023-04-12T06:30:00.872Z,513.5000
2023-04-12T06:31:03.261Z,512.2308
2023-04-12T06:32:05.527Z,509.1538
2023-04-12T06:33:07.862Z,509.5385
2023-04-12T06:34:10.195Z,508.9231
2023-04-12T06:35:12.531Z,509.2308
2023-04-12T06:36:14.913Z,509.8462
2023-04-12T06:37:17.166Z,511.0000
2023-04-12T06:38:19.502Z,507.3077
2023-04-12T06:39:21.850Z,505.9231
2023-04-12T06:40:24.177Z,503.4615
2023-04-12T06:41:26.502Z,500.7692
2023-04-12T06:42:28.817Z,500.1538
2023-04-12T06:43:31.142Z,503.2308
2023-04-12T06:44:33.493Z,507.8462
2023-04-12T06:45:35.805Z,510.5385
2023-04-12T06:46:38.155Z,511.1538
2023-04-12T06:47:40.497Z,507.6154
2023-04-12T06:48:42.798Z,504.5385
2023-04-12T06:49:45.122Z,502.5385
2023-04-12T06:50:47.457Z,502.3846
2023-04-12T06:51:49.816Z,499.4615
2023-04-12T06:52:52.124Z,497.6154
2023-04-12T06:53:54.462Z,495.4615
2023-04-12T06:54:57.075Z,496.5385
2023-04-12T06:55:59.115Z,495.4167
2023-04-12T06:57:01.457Z,493.5385
2023-04-12T06:58:03.780Z,493.3846
2023-04-12T06:59:06.122Z,493.3846
2023-04-12T07:00:08.430Z,493.6923
2023-04-12T07:01:10.813Z,495.1538
2023-04-12T07:02:13.121Z,494.2308
2023-04-12T07:03:15.491Z,495.3077
2023-04-12T07:04:17.963Z,495.1538
2023-04-12T07:05:20.088Z,496.0769
2023-04-12T07:06:26.052Z,497.4615
2023-04-12T07:07:25.005Z,497.2500
2023-04-12T07:08:28.645Z,496.6154
2023-04-12T07:09:29.447Z,490.9167
2023-04-12T07:10:31.748Z,491.3077
2023-04-12T07:11:34.094Z,491.7692
2023-04-12T07:12:36.432Z,491.0769
2023-04-12T07:13:38.748Z,490.1538
2023-04-12T07:14:42.409Z,491.3846
2023-04-12T07:15:43.414Z,490.1667
2023-04-12T07:16:45.872Z,493.0000
2023-04-12T07:17:48.119Z,494.1538
2023-04-12T07:18:50.443Z,496.5385
2023-04-12T07:19:52.746Z,497.7692
2023-04-12T07:20:55.079Z,496.8462
2023-04-12T07:21:57.428Z,495.1538
2023-04-12T07:22:59.753Z,492.6923
2023-04-12T07:24:02.099Z,491.6154
2023-04-12T07:25:04.411Z,490.0000
2023-04-12T07:26:06.741Z,492.7692
2023-04-12T07:27:09.070Z,494.3077
2023-04-12T07:28:11.427Z,492.0000
2023-04-12T07:29:13.750Z,491.0769
2023-04-12T07:30:16.063Z,492.6154
2023-04-12T07:31:18.423Z,494.6154
2023-04-12T07:32:20.903Z,495.7692
2023-04-12T07:33:23.216Z,496.9231
2023-04-12T07:34:25.488Z,494.0769
2023-04-12T07:35:27.740Z,492.5385
2023-04-12T07:36:30.072Z,492.5385
2023-04-12T07:37:32.405Z,489.8462
2023-04-12T07:38:34.868Z,488.1538
2023-04-12T07:39:37.109Z,487.6154
2023-04-12T07:40:39.402Z,485.4615
2023-04-12T07:41:41.748Z,482.0000
2023-04-12T07:42:44.078Z,481.4615
2023-04-12T07:43:46.425Z,480.9231
2023-04-12T07:44:48.726Z,485.0000
2023-04-12T07:45:51.162Z,488.5385
2023-04-12T07:46:53.406Z,486.0769
2023-04-12T07:47:55.765Z,485.0000
2023-04-12T07:48:58.302Z,484.3077
2023-04-12T07:50:00.408Z,483.4167
2023-04-12T07:51:02.731Z,480.7692
2023-04-12T07:52:05.070Z,479.3077
2023-04-12T07:53:07.396Z,482.2308
2023-04-12T07:54:09.834Z,482.2308
2023-04-12T07:55:12.084Z,483.8462
2023-04-12T07:56:14.394Z,480.6154
2023-04-12T07:57:16.764Z,475.3077
2023-04-12T07:58:19.074Z,471.9231
2023-04-12T07:59:21.406Z,469.4615
2023-04-12T08:00:23.749Z,469.3077
2023-04-12T08:01:26.064Z,469.8462
2023-04-12T08:02:28.531Z,467.3077
2023-04-12T08:03:30.773Z,465.0769
2023-04-12T08:04:33.085Z,462.2308
2023-04-12T08:05:35.462Z,461.0000
2023-04-12T08:06:37.725Z,461.4615
2023-04-12T08:07:40.068Z,461.6154
2023-04-12T08:08:42.391Z,460.0769
2023-04-12T08:09:44.761Z,459.5385
2023-04-12T08:10:47.119Z,460.6923
2023-04-12T08:11:49.423Z,460.3846
2023-04-12T08:12:51.720Z,458.3077
2023-04-12T08:13:54.063Z,457.3077
2023-04-12T08:14:56.392Z,458.3077
2023-04-12T08:15:58.784Z,460.1538
2023-04-12T08:17:01.068Z,460.6923
2023-04-12T08:18:03.476Z,462.2308
2023-04-12T08:19:05.731Z,460.6154
2023-04-12T08:20:08.069Z,460.5385
2023-04-12T08:21:10.428Z,461.2308
2023-04-12T08:22:13.719Z,461.6154
2023-04-12T08:23:15.085Z,457.5833
2023-04-12T08:24:17.418Z,455.6154
2023-04-12T08:25:19.751Z,457.3077
2023-04-12T08:26:22.092Z,459.0000
2023-04-12T08:27:24.429Z,459.4615
2023-04-12T08:28:26.754Z,459.0000
2023-04-12T08:29:29.086Z,454.3077
2023-04-12T08:30:31.433Z,453.8462
2023-04-12T08:31:33.812Z,453.8462
2023-04-12T08:32:36.176Z,453.3077
2023-04-12T08:33:38.438Z,450.3077
2023-04-12T08:34:40.802Z,454.6154
2023-04-12T08:35:43.144Z,454.6923
2023-04-12T08:36:45.470Z,454.6154
2023-04-12T08:37:47.793Z,455.3846
2023-04-12T08:38:50.122Z,455.4615
2023-04-12T08:39:52.479Z,452.6923
2023-04-12T08:40:54.835Z,451.3846
2023-04-12T08:41:57.139Z,454.4615
2023-04-12T08:42:59.473Z,456.6923
2023-04-12T08:44:01.883Z,460.8462
2023-04-12T08:45:04.168Z,460.6154
2023-04-12T08:46:06.503Z,456.6154
2023-04-12T08:47:08.822Z,456.1538
2023-04-12T08:48:11.168Z,457.6923
2023-04-12T08:49:13.493Z,463.1538
2023-04-12T08:50:15.835Z,460.3846
2023-04-12T08:51:18.203Z,458.0769
2023-04-12T08:52:20.511Z,459.0769
2023-04-12T08:53:22.835Z,460.0000
2023-04-12T08:54:25.190Z,460.6923
2023-04-12T08:55:27.514Z,460.2308
2023-04-12T08:56:29.859Z,462.5385
2023-04-12T08:57:32.194Z,466.2308
2023-04-12T08:58:34.526Z,467.3846
2023-04-12T08:59:36.887Z,465.0000
2023-04-12T09:00:39.203Z,463.8462
2023-04-12T09:01:41.658Z,462.2308
2023-04-12T09:02:44.074Z,460.0000
2023-04-12T09:03:46.357Z,459.1538
2023-04-12T09:04:48.672Z,455.0769
2023-04-12T09:05:50.897Z,456.6923
2023-04-12T09:06:53.229Z,456.0000
2023-04-12T09:07:55.586Z,456.5385
2023-04-12T09:08:57.919Z,455.5385
2023-04-12T09:10:00.287Z,455.3077
2023-04-12T09:11:02.589Z,454.6154
2023-04-12T09:12:04.914Z,455.5385
2023-04-12T09:13:07.293Z,454.6923
2023-04-12T09:14:09.588Z,454.6923
2023-04-12T09:15:11.947Z,454.2308
2023-04-12T09:16:14.304Z,454.9231
2023-04-12T09:17:16.624Z,455.4615
2023-04-12T09:18:18.986Z,457.6923
2023-04-12T09:19:21.285Z,455.0000
2023-04-12T09:20:23.957Z,452.0000
2023-04-12T09:21:25.953Z,449.1667
2023-04-12T09:22:28.301Z,450.1538
2023-04-12T09:23:30.626Z,447.7692
2023-04-12T09:24:32.972Z,445.3846
2023-04-12T09:25:35.322Z,443.4615
2023-04-12T09:26:37.661Z,445.1538
2023-04-12T09:27:40.231Z,443.6923
2023-04-12T09:28:42.332Z,445.0769
2023-04-12T09:29:44.673Z,444.5385
2023-04-12T09:30:47.029Z,444.5385
2023-04-12T09:31:49.480Z,443.3846
2023-04-12T09:32:51.728Z,444.5385
2023-04-12T09:33:54.034Z,445.0000
2023-04-12T09:34:56.370Z,441.5385
2023-04-12T09:35:58.746Z,439.6923
2023-04-12T09:37:01.054Z,441.3077
2023-04-12T09:38:03.383Z,440.7692
2023-04-12T09:39:05.761Z,439.9231
2023-04-12T09:40:08.057Z,438.6923
2023-04-12T09:41:10.409Z,439.6154
2023-04-12T09:42:25.517Z,439.0000
2023-04-12T09:43:15.112Z,437.1818
2023-04-12T09:44:17.425Z,436.7692
2023-04-12T09:45:19.767Z,435.2308
2023-04-12T09:46:22.183Z,433.1538
2023-04-12T09:47:24.497Z,430.8333
2023-04-12T09:48:26.814Z,425.0000
2023-04-12T09:49:29.115Z,425.7692
2023-04-12T09:50:31.572Z,424.2308
2023-04-12T09:51:33.897Z,423.5385
2023-04-12T09:52:36.251Z,422.8462
2023-04-12T09:53:38.567Z,425.3077
2023-04-12T09:54:40.908Z,423.6667
2023-04-12T09:55:43.245Z,422.0769
2023-04-12T09:56:45.557Z,423.1538
2023-04-12T09:57:47.914Z,424.3846
2023-04-12T09:58:50.254Z,428.5385
2023-04-12T09:59:52.605Z,425.3077
2023-04-12T10:00:54.933Z,424.9231
2023-04-12T10:01:57.375Z,425.7692
2023-04-12T10:02:59.887Z,425.2308
2023-04-12T10:04:02.429Z,424.5833
2023-04-12T10:05:04.520Z,422.6667
2023-04-12T10:06:06.650Z,419.7500
2023-04-12T10:07:08.987Z,420.2308
2023-04-12T10:08:11.317Z,418.0769
2023-04-12T10:09:13.653Z,421.1538
2023-04-12T10:10:16.004Z,421.3846
2023-04-12T10:11:18.343Z,423.0769
2023-04-12T10:12:20.695Z,422.0000
2023-04-12T10:13:23.012Z,420.9231
2023-04-12T10:14:25.336Z,420.6923
2023-04-12T10:15:27.696Z,422.4615
2023-04-12T10:16:30.041Z,422.0769
2023-04-12T10:17:32.377Z,421.0769
2023-04-12T10:18:34.699Z,422.4615
2023-04-12T10:19:37.034Z,426.9231
2023-04-12T10:20:39.356Z,426.0769
2023-04-12T10:21:41.677Z,430.8462
2023-04-12T10:22:44.042Z,440.3077
2023-04-12T10:23:46.360Z,438.1538
2023-04-12T10:24:48.717Z,436.2308
2023-04-12T10:25:51.065Z,435.3846
2023-04-12T10:26:53.392Z,431.0769
2023-04-12T10:27:55.732Z,425.2308
2023-04-12T10:28:58.150Z,425.0000
2023-04-12T10:30:00.419Z,424.0769
2023-04-12T10:31:02.752Z,419.8462
2023-04-12T10:32:05.118Z,418.6923
2023-04-12T10:33:07.449Z,417.6154
2023-04-12T10:34:09.771Z,414.4615
2023-04-12T10:35:12.113Z,412.0769
2023-04-12T10:36:14.481Z,412.1538
2023-04-12T10:37:16.794Z,411.6154
2023-04-12T10:38:19.212Z,411.5385
2023-04-12T10:39:21.448Z,411.4615
2023-04-12T10:40:23.808Z,410.0000
2023-04-12T10:41:26.138Z,410.1538
2023-04-12T10:42:28.509Z,411.8462
2023-04-12T10:43:30.831Z,412.9231
2023-04-12T10:44:33.228Z,411.5385
2023-04-12T10:45:35.504Z,428.1538
2023-04-12T10:46:37.975Z,420.9231
2023-04-12T10:47:40.253Z,415.8462
2023-04-12T10:48:42.543Z,412.8462
2023-04-12T10:49:44.891Z,412.7692
2023-04-12T10:50:47.219Z,412.1538
2023-04-12T10:51:49.552Z,411.0000
2023-04-12T10:52:51.932Z,411.1538
2023-04-12T10:53:54.290Z,411.1538
2023-04-12T10:54:56.604Z,412.9231
2023-04-12T10:55:58.903Z,412.5385
2023-04-12T10:57:01.281Z,414.5385
2023-04-12T10:58:03.601Z,418.3077
2023-04-12T10:59:05.988Z,414.9231
2023-04-12T11:00:08.273Z,416.0769
2023-04-12T11:01:10.882Z,416.1538
2023-04-12T11:02:13.347Z,418.0833
2023-04-12T11:03:15.379Z,422.1667
2023-04-12T11:04:18.077Z,421.1538
2023-04-12T11:05:20.040Z,422.1667
2023-04-12T11:06:27.520Z,420.6923
2023-04-12T11:07:24.645Z,417.6364
2023-04-12T11:08:26.989Z,419.1538
2023-04-12T11:09:29.374Z,420.7692
2023-04-12T11:10:31.670Z,421.2308
2023-04-12T11:11:34.037Z,420.8462
2023-04-12T11:12:36.357Z,420.3846
2023-04-12T11:13:38.674Z,419.6154
2023-04-12T11:14:41.071Z,417.3077
2023-04-12T11:15:43.365Z,416.5385
2023-04-12T11:16:45.759Z,415.8462
2023-04-12T11:17:48.114Z,415.6154
2023-04-12T11:18:50.356Z,416.0000
2023-04-12T11:19:52.733Z,416.6154
2023-04-12T11:20:55.066Z,416.5385
2023-04-12T11:21:57.422Z,414.2308
2023-04-12T11:22:59.712Z,415.0000
2023-04-12T11:24:02.133Z,412.3846
2023-04-12T11:25:04.449Z,412.0833
2023-04-12T11:26:06.771Z,413.3846
2023-04-12T11:27:09.071Z,415.5385
2023-04-12T11:28:27.413Z,415.2308
2023-04-12T11:29:13.753Z,419.5454
2023-04-12T11:30:16.117Z,422.3077
2023-04-12T11:31:18.497Z,424.0769
2023-04-12T11:32:20.973Z,425.1538
2023-04-12T11:33:23.118Z,422.9231
2023-04-12T11:34:25.457Z,418.2308
2023-04-12T11:35:27.815Z,417.0769
2023-04-12T11:36:30.132Z,416.8462
2023-04-12T11:37:32.488Z,415.3077
2023-04-12T11:38:34.826Z,418.5385
2023-04-12T11:39:37.137Z,417.6923
2023-04-12T11:40:39.493Z,419.6923
2023-04-12T11:41:41.818Z,422.7692
2023-04-12T11:42:44.188Z,420.2308
2023-04-12T11:43:46.496Z,417.6154
2023-04-12T11:44:57.737Z,416.7692
2023-04-12T11:45:51.183Z,418.9091
2023-04-12T11:46:53.512Z,420.6154
2023-04-12T11:47:55.993Z,420.6923
2023-04-12T11:48:58.300Z,420.2308
2023-04-12T11:50:00.527Z,420.0000
2023-04-12T11:51:11.357Z,420.6923
2023-04-12T11:52:05.207Z,424.3636
2023-04-12T11:53:07.562Z,424.3846
2023-04-12T11:54:09.894Z,423.7692
2023-04-12T11:55:12.234Z,425.6923
2023-04-12T11:56:14.572Z,423.9231
2023-04-12T11:57:16.912Z,421.3846
2023-04-12T11:58:19.257Z,422.3846
2023-04-12T11:59:21.654Z,423.0769
2023-04-12T12:00:23.941Z,422.6154
2023-04-12T12:01:26.282Z,420.0000
2023-04-12T12:02:33.150Z,419.4615
2023-04-12T12:03:31.362Z,420.8182
2023-04-12T12:04:33.522Z,423.7500
2023-04-12T12:05:35.873Z,427.9167
2023-04-12T12:06:38.383Z,431.0833
2023-04-12T12:07:40.333Z,432.7500
2023-04-12T12:08:42.655Z,429.9231
2023-04-12T12:09:44.997Z,426.3077
2023-04-12T12:11:49.680Z,431.0000
2023-04-12T12:12:52.033Z,434.3846
2023-04-12T12:13:54.383Z,438.1538